sensor_id;sensor_type;location;lat;lon;timestamp;temperature;humidity
4615;DHT22;2320;51.362;6.946;2023-04-06T00:00:04;1.30;99.90
4615;DHT22;2320;51.362;6.946;2023-04-06T00:02:30;1.20;99.90
4615;DHT22;2320;51.362;6.946;2023-04-06T00:04:56;1.20;99.90
4615;DHT22;2320;51.362;6.946;2023-04-06T00:07:21;1.10;99.90
4615;DHT22;2320;51.362;6.946;2023-04-06T00:09:47;1.20;99.90
4615;DHT22;2320;51.362;6.946;2023-04-06T00:12:12;1.20;99.90
4615;DHT22;2320;51.362;6.946;2023-04-06T00:14:37;1.10;99.90
4615;DHT22;2320;51.362;6.946;2023-04-06T00:17:03;1.20;99.90
4615;DHT22;2320;51.362;6.946;2023-04-06T00:19:28;1.10;99.90
4615;DHT22;2320;51.362;6.946;2023-04-06T00:21:54;1.20;99.90
4615;DHT22;2320;51.362;6.946;2023-04-06T00:24:20;1.10;99.90
4615;DHT22;2320;51.362;6.946;2023-04-06T00:26:45;1.10;99.90
4615;DHT22;2320;51.362;6.946;2023-04-06T00:29:11;1.20;99.90
4615;DHT22;2320;51.362;6.946;2023-04-06T00:31:36;1.00;99.90
4615;DHT22;2320;51.362;6.946;2023-04-06T00:34:01;1.10;99.90
4615;DHT22;2320;51.362;6.946;2023-04-06T00:36:27;1.00;99.90
4615;DHT22;2320;51.362;6.946;2023-04-06T00:38:52;1.00;99.90
4615;DHT22;2320;51.362;6.946;2023-04-06T00:41:18;1.00;99.90
4615;DHT22;2320;51.362;6.946;2023-04-06T00:43:43;1.00;99.90
4615;DHT22;2320;51.362;6.946;2023-04-06T00:46:09;1.00;99.90
4615;DHT22;2320;51.362;6.946;2023-04-06T00:48:34;0.90;99.90
4615;DHT22;2320;51.362;6.946;2023-04-06T00:51:00;1.10;99.90
4615;DHT22;2320;51.362;6.946;2023-04-06T00:53:26;0.90;99.90
4615;DHT22;2320;51.362;6.946;2023-04-06T00:55:52;0.80;99.90
4615;DHT22;2320;51.362;6.946;2023-04-06T00:58:17;0.90;99.90
4615;DHT22;2320;51.362;6.946;2023-04-06T01:00:43;0.90;99.90
4615;DHT22;2320;51.362;6.946;2023-04-06T01:03:08;0.90;99.90
4615;DHT22;2320;51.362;6.946;2023-04-06T01:05:34;0.90;99.90
4615;DHT22;2320;51.362;6.946;2023-04-06T01:08:00;0.90;99.90
4615;DHT22;2320;51.362;6.946;2023-04-06T01:10:26;0.80;99.90
4615;DHT22;2320;51.362;6.946;2023-04-06T01:12:52;0.70;99.90
4615;DHT22;2320;51.362;6.946;2023-04-06T01:15:17;0.60;99.90
4615;DHT22;2320;51.362;6.946;2023-04-06T01:17:43;0.50;99.90
4615;DHT22;2320;51.362;6.946;2023-04-06T01:20:08;0.60;99.90
4615;DHT22;2320;51.362;6.946;2023-04-06T01:22:34;0.70;99.90
4615;DHT22;2320;51.362;6.946;2023-04-06T01:24:59;0.60;99.90
4615;DHT22;2320;51.362;6.946;2023-04-06T01:27:25;0.60;99.90
4615;DHT22;2320;51.362;6.946;2023-04-06T01:29:51;0.70;99.90
4615;DHT22;2320;51.362;6.946;2023-04-06T01:32:17;0.80;99.90
4615;DHT22;2320;51.362;6.946;2023-04-06T01:34:42;0.80;99.90
4615;DHT22;2320;51.362;6.946;2023-04-06T01:37:07;0.70;99.90
4615;DHT22;2320;51.362;6.946;2023-04-06T01:39:33;0.60;99.90
4615;DHT22;2320;51.362;6.946;2023-04-06T01:41:58;0.60;99.90
4615;DHT22;2320;51.362;6.946;2023-04-06T01:44:24;0.80;99.90
4615;DHT22;2320;51.362;6.946;2023-04-06T01:46:49;0.90;99.90
4615;DHT22;2320;51.362;6.946;2023-04-06T01:49:15;0.90;99.90
4615;DHT22;2320;51.362;6.946;2023-04-06T01:51:40;0.80;99.90
4615;DHT22;2320;51.362;6.946;2023-04-06T01:54:06;1.00;99.90
4615;DHT22;2320;51.362;6.946;2023-04-06T01:56:31;1.00;99.90
4615;DHT22;2320;51.362;6.946;2023-04-06T01:58:57;1.00;99.90
4615;DHT22;2320;51.362;6.946;2023-04-06T02:01:22;0.80;99.90
4615;DHT22;2320;51.362;6.946;2023-04-06T02:03:48;0.80;99.90
4615;DHT22;2320;51.362;6.946;2023-04-06T02:06:13;0.70;99.90
4615;DHT22;2320;51.362;6.946;2023-04-06T02:08:39;1.00;99.90
4615;DHT22;2320;51.362;6.946;2023-04-06T02:11:04;1.00;99.90
4615;DHT22;2320;51.362;6.946;2023-04-06T02:13:30;0.80;99.90
4615;DHT22;2320;51.362;6.946;2023-04-06T02:15:55;0.70;99.90
4615;DHT22;2320;51.362;6.946;2023-04-06T02:18:22;0.70;99.90
4615;DHT22;2320;51.362;6.946;2023-04-06T02:20:48;0.70;99.90
4615;DHT22;2320;51.362;6.946;2023-04-06T02:23:13;0.70;99.90
4615;DHT22;2320;51.362;6.946;2023-04-06T02:25:39;0.70;99.90
4615;DHT22;2320;51.362;6.946;2023-04-06T02:28:04;0.80;99.90
4615;DHT22;2320;51.362;6.946;2023-04-06T02:30:30;0.80;99.90
4615;DHT22;2320;51.362;6.946;2023-04-06T02:32:58;0.90;99.90
4615;DHT22;2320;51.362;6.946;2023-04-06T02:35:24;1.00;99.90
4615;DHT22;2320;51.362;6.946;2023-04-06T02:37:50;0.90;99.90
4615;DHT22;2320;51.362;6.946;2023-04-06T02:40:15;1.00;99.90
4615;DHT22;2320;51.362;6.946;2023-04-06T02:42:41;0.90;99.90
4615;DHT22;2320;51.362;6.946;2023-04-06T02:45:06;0.80;99.90
4615;DHT22;2320;51.362;6.946;2023-04-06T02:47:32;1.00;99.90
4615;DHT22;2320;51.362;6.946;2023-04-06T02:49:58;1.20;99.90
4615;DHT22;2320;51.362;6.946;2023-04-06T02:52:23;1.20;99.90
4615;DHT22;2320;51.362;6.946;2023-04-06T02:54:49;1.10;99.90
4615;DHT22;2320;51.362;6.946;2023-04-06T02:57:16;1.10;99.90
4615;DHT22;2320;51.362;6.946;2023-04-06T02:59:41;1.00;99.90
4615;DHT22;2320;51.362;6.946;2023-04-06T03:02:07;1.00;99.90
4615;DHT22;2320;51.362;6.946;2023-04-06T03:04:32;1.10;99.90
4615;DHT22;2320;51.362;6.946;2023-04-06T03:06:58;1.10;99.90
4615;DHT22;2320;51.362;6.946;2023-04-06T03:09:23;1.10;99.90
4615;DHT22;2320;51.362;6.946;2023-04-06T03:11:49;0.90;99.90
4615;DHT22;2320;51.362;6.946;2023-04-06T03:14:14;0.70;99.90
4615;DHT22;2320;51.362;6.946;2023-04-06T03:16:42;0.90;99.90
4615;DHT22;2320;51.362;6.946;2023-04-06T03:19:07;0.80;99.90
4615;DHT22;2320;51.362;6.946;2023-04-06T03:21:33;0.90;99.90
4615;DHT22;2320;51.362;6.946;2023-04-06T03:23:58;1.10;99.90
4615;DHT22;2320;51.362;6.946;2023-04-06T03:26:24;1.10;99.90
4615;DHT22;2320;51.362;6.946;2023-04-06T03:28:49;1.00;99.90
4615;DHT22;2320;51.362;6.946;2023-04-06T03:31:15;0.90;99.90
4615;DHT22;2320;51.362;6.946;2023-04-06T03:33:40;0.80;99.90
4615;DHT22;2320;51.362;6.946;2023-04-06T03:36:06;0.80;99.90
4615;DHT22;2320;51.362;6.946;2023-04-06T03:38:32;0.80;99.90
4615;DHT22;2320;51.362;6.946;2023-04-06T03:40:57;0.70;99.90
4615;DHT22;2320;51.362;6.946;2023-04-06T03:43:22;0.70;99.90
4615;DHT22;2320;51.362;6.946;2023-04-06T03:45:48;0.80;99.90
4615;DHT22;2320;51.362;6.946;2023-04-06T03:48:13;0.90;99.90
4615;DHT22;2320;51.362;6.946;2023-04-06T03:50:39;1.00;99.90
4615;DHT22;2320;51.362;6.946;2023-04-06T03:53:04;1.00;99.90
4615;DHT22;2320;51.362;6.946;2023-04-06T03:55:30;0.90;99.90
4615;DHT22;2320;51.362;6.946;2023-04-06T03:57:55;1.10;99.90
4615;DHT22;2320;51.362;6.946;2023-04-06T04:00:21;1.00;99.90
4615;DHT22;2320;51.362;6.946;2023-04-06T04:02:46;1.20;99.90
4615;DHT22;2320;51.362;6.946;2023-04-06T04:05:12;1.10;99.90
4615;DHT22;2320;51.362;6.946;2023-04-06T04:07:37;1.20;99.90
4615;DHT22;2320;51.362;6.946;2023-04-06T04:10:03;1.20;99.90
4615;DHT22;2320;51.362;6.946;2023-04-06T04:12:28;1.30;99.90
4615;DHT22;2320;51.362;6.946;2023-04-06T04:14:54;1.20;99.90
4615;DHT22;2320;51.362;6.946;2023-04-06T04:17:19;1.20;99.90
4615;DHT22;2320;51.362;6.946;2023-04-06T04:19:45;1.00;99.90
4615;DHT22;2320;51.362;6.946;2023-04-06T04:22:10;1.10;99.90
4615;DHT22;2320;51.362;6.946;2023-04-06T04:24:36;1.20;99.90
4615;DHT22;2320;51.362;6.946;2023-04-06T04:27:01;1.10;99.90
4615;DHT22;2320;51.362;6.946;2023-04-06T04:29:27;1.20;99.90
4615;DHT22;2320;51.362;6.946;2023-04-06T04:31:52;1.00;99.90
4615;DHT22;2320;51.362;6.946;2023-04-06T04:34:18;1.10;99.90
4615;DHT22;2320;51.362;6.946;2023-04-06T04:36:45;1.00;99.90
4615;DHT22;2320;51.362;6.946;2023-04-06T04:39:11;0.90;99.90
4615;DHT22;2320;51.362;6.946;2023-04-06T04:41:36;0.90;99.90
4615;DHT22;2320;51.362;6.946;2023-04-06T04:44:02;0.80;99.90
4615;DHT22;2320;51.362;6.946;2023-04-06T04:46:27;0.90;99.90
4615;DHT22;2320;51.362;6.946;2023-04-06T04:48:53;0.90;99.90
4615;DHT22;2320;51.362;6.946;2023-04-06T04:51:18;1.00;99.90
4615;DHT22;2320;51.362;6.946;2023-04-06T04:53:45;1.00;99.90
4615;DHT22;2320;51.362;6.946;2023-04-06T04:56:10;1.00;99.90
4615;DHT22;2320;51.362;6.946;2023-04-06T04:58:36;1.10;99.90
4615;DHT22;2320;51.362;6.946;2023-04-06T05:01:01;1.00;99.90
4615;DHT22;2320;51.362;6.946;2023-04-06T05:03:27;1.00;99.90
4615;DHT22;2320;51.362;6.946;2023-04-06T05:05:52;1.20;99.90
4615;DHT22;2320;51.362;6.946;2023-04-06T05:08:18;1.20;99.90
4615;DHT22;2320;51.362;6.946;2023-04-06T05:10:43;1.40;99.90
4615;DHT22;2320;51.362;6.946;2023-04-06T05:13:10;1.60;99.90
4615;DHT22;2320;51.362;6.946;2023-04-06T05:15:35;1.70;99.90
4615;DHT22;2320;51.362;6.946;2023-04-06T05:18:06;1.80;99.90
4615;DHT22;2320;51.362;6.946;2023-04-06T05:20:32;2.00;99.90
4615;DHT22;2320;51.362;6.946;2023-04-06T05:22:58;1.90;99.90
4615;DHT22;2320;51.362;6.946;2023-04-06T05:25:23;1.90;99.90
4615;DHT22;2320;51.362;6.946;2023-04-06T05:27:49;2.10;99.90
4615;DHT22;2320;51.362;6.946;2023-04-06T05:30:14;2.20;99.90
4615;DHT22;2320;51.362;6.946;2023-04-06T05:32:40;2.30;99.90
4615;DHT22;2320;51.362;6.946;2023-04-06T05:35:06;2.40;99.90
4615;DHT22;2320;51.362;6.946;2023-04-06T05:37:32;2.80;99.90
4615;DHT22;2320;51.362;6.946;2023-04-06T05:39:57;3.30;99.90
4615;DHT22;2320;51.362;6.946;2023-04-06T05:42:22;3.90;99.90
4615;DHT22;2320;51.362;6.946;2023-04-06T05:44:48;4.60;99.90
4615;DHT22;2320;51.362;6.946;2023-04-06T05:47:14;5.40;99.90
4615;DHT22;2320;51.362;6.946;2023-04-06T05:49:41;6.00;99.90
4615;DHT22;2320;51.362;6.946;2023-04-06T05:52:06;6.50;99.90
4615;DHT22;2320;51.362;6.946;2023-04-06T05:54:32;7.10;99.90
4615;DHT22;2320;51.362;6.946;2023-04-06T05:56:57;7.70;99.90
4615;DHT22;2320;51.362;6.946;2023-04-06T05:59:23;8.40;99.90
4615;DHT22;2320;51.362;6.946;2023-04-06T06:01:49;8.80;99.90
4615;DHT22;2320;51.362;6.946;2023-04-06T06:04:14;9.40;99.90
4615;DHT22;2320;51.362;6.946;2023-04-06T06:06:40;10.00;99.90
4615;DHT22;2320;51.362;6.946;2023-04-06T06:09:05;10.50;99.90
4615;DHT22;2320;51.362;6.946;2023-04-06T06:11:31;10.90;99.90
4615;DHT22;2320;51.362;6.946;2023-04-06T06:13:56;11.30;99.90
4615;DHT22;2320;51.362;6.946;2023-04-06T06:16:21;11.90;99.90
4615;DHT22;2320;51.362;6.946;2023-04-06T06:18:47;11.90;99.90
4615;DHT22;2320;51.362;6.946;2023-04-06T06:21:12;11.90;97.10
4615;DHT22;2320;51.362;6.946;2023-04-06T06:23:38;11.30;95.70
4615;DHT22;2320;51.362;6.946;2023-04-06T06:26:04;11.50;95.20
4615;DHT22;2320;51.362;6.946;2023-04-06T06:28:29;11.80;94.50
4615;DHT22;2320;51.362;6.946;2023-04-06T06:30:55;11.90;93.40
4615;DHT22;2320;51.362;6.946;2023-04-06T06:33:20;11.90;93.30
4615;DHT22;2320;51.362;6.946;2023-04-06T06:35:46;12.30;93.40
4615;DHT22;2320;51.362;6.946;2023-04-06T06:38:11;12.40;91.20
4615;DHT22;2320;51.362;6.946;2023-04-06T06:40:37;12.50;90.10
4615;DHT22;2320;51.362;6.946;2023-04-06T06:43:02;12.80;90.90
4615;DHT22;2320;51.362;6.946;2023-04-06T06:45:28;12.80;87.00
4615;DHT22;2320;51.362;6.946;2023-04-06T06:47:54;13.50;89.60
4615;DHT22;2320;51.362;6.946;2023-04-06T06:50:20;13.70;85.60
4615;DHT22;2320;51.362;6.946;2023-04-06T06:52:45;14.00;82.10
4615;DHT22;2320;51.362;6.946;2023-04-06T06:55:11;13.70;80.80
4615;DHT22;2320;51.362;6.946;2023-04-06T06:57:36;13.60;79.80
4615;DHT22;2320;51.362;6.946;2023-04-06T07:00:03;13.40;80.20
4615;DHT22;2320;51.362;6.946;2023-04-06T07:02:30;13.80;79.10
4615;DHT22;2320;51.362;6.946;2023-04-06T07:04:56;14.20;81.80
4615;DHT22;2320;51.362;6.946;2023-04-06T07:07:22;15.00;76.70
4615;DHT22;2320;51.362;6.946;2023-04-06T07:09:47;15.00;75.90
4615;DHT22;2320;51.362;6.946;2023-04-06T07:12:13;15.10;75.10
4615;DHT22;2320;51.362;6.946;2023-04-06T07:14:38;15.50;74.80
4615;DHT22;2320;51.362;6.946;2023-04-06T07:17:03;16.00;71.80
4615;DHT22;2320;51.362;6.946;2023-04-06T07:19:29;15.90;70.40
4615;DHT22;2320;51.362;6.946;2023-04-06T07:21:54;15.90;71.40
4615;DHT22;2320;51.362;6.946;2023-04-06T07:24:21;16.60;68.80
4615;DHT22;2320;51.362;6.946;2023-04-06T07:26:46;16.80;68.10
4615;DHT22;2320;51.362;6.946;2023-04-06T07:29:12;16.60;66.40
4615;DHT22;2320;51.362;6.946;2023-04-06T07:31:37;17.20;67.00
4615;DHT22;2320;51.362;6.946;2023-04-06T07:34:03;17.00;68.80
4615;DHT22;2320;51.362;6.946;2023-04-06T07:36:29;17.50;65.60
4615;DHT22;2320;51.362;6.946;2023-04-06T07:38:54;18.00;63.30
4615;DHT22;2320;51.362;6.946;2023-04-06T07:41:20;18.30;62.00
4615;DHT22;2320;51.362;6.946;2023-04-06T07:43:45;18.70;60.00
4615;DHT22;2320;51.362;6.946;2023-04-06T07:46:11;19.10;60.50
4615;DHT22;2320;51.362;6.946;2023-04-06T07:48:36;20.10;58.40
4615;DHT22;2320;51.362;6.946;2023-04-06T07:51:03;19.90;57.00
4615;DHT22;2320;51.362;6.946;2023-04-06T07:53:29;20.20;57.60
4615;DHT22;2320;51.362;6.946;2023-04-06T07:55:55;21.20;57.60
4615;DHT22;2320;51.362;6.946;2023-04-06T07:58:21;20.30;54.30
4615;DHT22;2320;51.362;6.946;2023-04-06T08:00:46;19.80;54.20
4615;DHT22;2320;51.362;6.946;2023-04-06T08:03:12;19.20;54.60
4615;DHT22;2320;51.362;6.946;2023-04-06T08:05:37;18.40;55.40
4615;DHT22;2320;51.362;6.946;2023-04-06T08:08:03;17.60;56.10
4615;DHT22;2320;51.362;6.946;2023-04-06T08:10:28;17.60;56.50
4615;DHT22;2320;51.362;6.946;2023-04-06T08:12:54;17.90;56.30
4615;DHT22;2320;51.362;6.946;2023-04-06T08:15:19;17.70;56.70
4615;DHT22;2320;51.362;6.946;2023-04-06T08:17:45;17.60;56.30
4615;DHT22;2320;51.362;6.946;2023-04-06T08:20:10;18.30;55.90
4615;DHT22;2320;51.362;6.946;2023-04-06T08:22:36;19.50;55.70
4615;DHT22;2320;51.362;6.946;2023-04-06T08:25:01;19.30;54.70
4615;DHT22;2320;51.362;6.946;2023-04-06T08:27:27;19.00;54.90
4615;DHT22;2320;51.362;6.946;2023-04-06T08:29:52;19.00;54.50
4615;DHT22;2320;51.362;6.946;2023-04-06T08:32:18;18.80;55.00
4615;DHT22;2320;51.362;6.946;2023-04-06T08:34:43;18.70;54.80
4615;DHT22;2320;51.362;6.946;2023-04-06T08:37:09;18.80;55.20
4615;DHT22;2320;51.362;6.946;2023-04-06T08:39:34;19.60;56.00
4615;DHT22;2320;51.362;6.946;2023-04-06T08:42:00;19.20;55.80
4615;DHT22;2320;51.362;6.946;2023-04-06T08:44:28;20.00;56.40
4615;DHT22;2320;51.362;6.946;2023-04-06T08:46:54;20.50;53.90
4615;DHT22;2320;51.362;6.946;2023-04-06T08:49:20;20.00;52.90
4615;DHT22;2320;51.362;6.946;2023-04-06T08:51:45;19.40;53.50
4615;DHT22;2320;51.362;6.946;2023-04-06T08:54:12;19.10;53.60
4615;DHT22;2320;51.362;6.946;2023-04-06T08:56:38;19.40;53.50
4615;DHT22;2320;51.362;6.946;2023-04-06T08:59:03;19.50;52.30
4615;DHT22;2320;51.362;6.946;2023-04-06T09:01:29;19.10;53.40
4615;DHT22;2320;51.362;6.946;2023-04-06T09:03:56;20.00;54.00
4615;DHT22;2320;51.362;6.946;2023-04-06T09:06:22;20.50;52.70
4615;DHT22;2320;51.362;6.946;2023-04-06T09:08:48;20.20;52.60
4615;DHT22;2320;51.362;6.946;2023-04-06T09:11:14;20.20;53.20
4615;DHT22;2320;51.362;6.946;2023-04-06T09:13:53;21.00;54.20
4615;DHT22;2320;51.362;6.946;2023-04-06T09:16:19;22.50;53.00
4615;DHT22;2320;51.362;6.946;2023-04-06T09:18:45;22.70;50.00
4615;DHT22;2320;51.362;6.946;2023-04-06T09:21:11;23.00;50.20
4615;DHT22;2320;51.362;6.946;2023-04-06T09:23:36;22.40;49.60
4615;DHT22;2320;51.362;6.946;2023-04-06T09:26:05;22.50;51.70
4615;DHT22;2320;51.362;6.946;2023-04-06T09:31:06;23.60;49.60
4615;DHT22;2320;51.362;6.946;2023-04-06T09:33:32;23.00;47.40
4615;DHT22;2320;51.362;6.946;2023-04-06T09:35:57;22.60;51.60
4615;DHT22;2320;51.362;6.946;2023-04-06T09:38:23;23.60;50.60
4615;DHT22;2320;51.362;6.946;2023-04-06T09:40:49;24.50;51.20
4615;DHT22;2320;51.362;6.946;2023-04-06T09:43:23;24.80;49.50
4615;DHT22;2320;51.362;6.946;2023-04-06T09:45:48;24.00;46.60
4615;DHT22;2320;51.362;6.946;2023-04-06T09:48:14;24.00;47.00
4615;DHT22;2320;51.362;6.946;2023-04-06T09:50:39;23.60;46.70
4615;DHT22;2320;51.362;6.946;2023-04-06T09:53:05;24.30;49.40
4615;DHT22;2320;51.362;6.946;2023-04-06T09:55:35;24.80;48.40
4615;DHT22;2320;51.362;6.946;2023-04-06T09:58:05;24.70;47.20
4615;DHT22;2320;51.362;6.946;2023-04-06T10:00:32;23.50;47.80
4615;DHT22;2320;51.362;6.946;2023-04-06T10:02:58;22.00;47.10
4615;DHT22;2320;51.362;6.946;2023-04-06T10:05:27;21.40;47.70
4615;DHT22;2320;51.362;6.946;2023-04-06T10:07:56;21.20;47.50
4615;DHT22;2320;51.362;6.946;2023-04-06T10:10:22;20.80;50.60
4615;DHT22;2320;51.362;6.946;2023-04-06T10:12:48;20.60;51.50
4615;DHT22;2320;51.362;6.946;2023-04-06T10:15:15;20.30;49.10
4615;DHT22;2320;51.362;6.946;2023-04-06T10:17:41;20.10;49.50
4615;DHT22;2320;51.362;6.946;2023-04-06T10:20:07;20.20;49.70
4615;DHT22;2320;51.362;6.946;2023-04-06T10:25:08;20.90;53.10
4615;DHT22;2320;51.362;6.946;2023-04-06T10:27:34;21.40;50.50
4615;DHT22;2320;51.362;6.946;2023-04-06T10:30:03;21.60;49.40
4615;DHT22;2320;51.362;6.946;2023-04-06T10:32:33;21.10;49.30
4615;DHT22;2320;51.362;6.946;2023-04-06T10:35:04;21.10;51.00
4615;DHT22;2320;51.362;6.946;2023-04-06T10:37:45;21.60;52.10
4615;DHT22;2320;51.362;6.946;2023-04-06T10:40:26;21.90;51.40
4615;DHT22;2320;51.362;6.946;2023-04-06T10:42:52;21.50;49.70
4615;DHT22;2320;51.362;6.946;2023-04-06T10:45:18;21.70;49.30
4615;DHT22;2320;51.362;6.946;2023-04-06T10:47:44;21.30;50.80
4615;DHT22;2320;51.362;6.946;2023-04-06T10:50:10;21.50;52.10
4615;DHT22;2320;51.362;6.946;2023-04-06T10:52:39;21.80;52.00
4615;DHT22;2320;51.362;6.946;2023-04-06T10:55:04;22.00;52.90
4615;DHT22;2320;51.362;6.946;2023-04-06T10:57:30;21.70;52.20
4615;DHT22;2320;51.362;6.946;2023-04-06T10:59:58;21.50;53.70
4615;DHT22;2320;51.362;6.946;2023-04-06T11:02:23;21.00;51.80
4615;DHT22;2320;51.362;6.946;2023-04-06T11:04:55;20.20;52.10
4615;DHT22;2320;51.362;6.946;2023-04-06T11:07:24;19.80;51.00
4615;DHT22;2320;51.362;6.946;2023-04-06T11:09:50;19.60;53.30
4615;DHT22;2320;51.362;6.946;2023-04-06T11:12:23;19.40;54.80
4615;DHT22;2320;51.362;6.946;2023-04-06T11:14:55;19.40;53.60
4615;DHT22;2320;51.362;6.946;2023-04-06T11:17:34;19.20;54.00
4615;DHT22;2320;51.362;6.946;2023-04-06T11:20:01;19.30;54.40
4615;DHT22;2320;51.362;6.946;2023-04-06T11:22:26;19.40;55.70
4615;DHT22;2320;51.362;6.946;2023-04-06T11:24:52;19.40;55.10
4615;DHT22;2320;51.362;6.946;2023-04-06T11:27:21;19.00;53.70
4615;DHT22;2320;51.362;6.946;2023-04-06T11:29:46;18.60;53.90
4615;DHT22;2320;51.362;6.946;2023-04-06T11:32:19;18.40;54.30
4615;DHT22;2320;51.362;6.946;2023-04-06T11:34:45;18.00;53.20
4615;DHT22;2320;51.362;6.946;2023-04-06T11:37:12;18.00;53.30
4615;DHT22;2320;51.362;6.946;2023-04-06T11:39:43;17.90;54.60
4615;DHT22;2320;51.362;6.946;2023-04-06T11:42:08;17.90;55.60
4615;DHT22;2320;51.362;6.946;2023-04-06T11:47:05;18.20;56.90
4615;DHT22;2320;51.362;6.946;2023-04-06T11:49:31;17.90;55.60
4615;DHT22;2320;51.362;6.946;2023-04-06T11:51:57;17.70;55.70
4615;DHT22;2320;51.362;6.946;2023-04-06T11:54:29;17.70;57.40
4615;DHT22;2320;51.362;6.946;2023-04-06T11:56:55;17.80;58.20
4615;DHT22;2320;51.362;6.946;2023-04-06T11:59:21;17.70;57.80
4615;DHT22;2320;51.362;6.946;2023-04-06T12:01:47;17.60;57.80
4615;DHT22;2320;51.362;6.946;2023-04-06T12:04:13;17.70;58.80
4615;DHT22;2320;51.362;6.946;2023-04-06T12:06:38;17.70;58.00
4615;DHT22;2320;51.362;6.946;2023-04-06T12:09:04;17.70;58.40
4615;DHT22;2320;51.362;6.946;2023-04-06T12:11:29;17.40;58.00
4615;DHT22;2320;51.362;6.946;2023-04-06T12:13:54;17.30;59.30
4615;DHT22;2320;51.362;6.946;2023-04-06T12:16:20;16.90;58.90
4615;DHT22;2320;51.362;6.946;2023-04-06T12:18:45;17.10;61.70
4615;DHT22;2320;51.362;6.946;2023-04-06T12:21:11;17.00;62.50
4615;DHT22;2320;51.362;6.946;2023-04-06T12:23:36;17.10;63.30
4615;DHT22;2320;51.362;6.946;2023-04-06T12:26:02;17.20;64.60
4615;DHT22;2320;51.362;6.946;2023-04-06T12:28:28;17.00;63.00
4615;DHT22;2320;51.362;6.946;2023-04-06T12:30:54;17.00;64.30
4615;DHT22;2320;51.362;6.946;2023-04-06T12:33:20;17.00;65.40
4615;DHT22;2320;51.362;6.946;2023-04-06T12:35:46;17.20;67.00
4615;DHT22;2320;51.362;6.946;2023-04-06T12:38:11;17.20;65.40
4615;DHT22;2320;51.362;6.946;2023-04-06T12:40:37;17.10;67.10
4615;DHT22;2320;51.362;6.946;2023-04-06T12:43:03;17.10;66.90
4615;DHT22;2320;51.362;6.946;2023-04-06T12:45:30;17.00;66.60
4615;DHT22;2320;51.362;6.946;2023-04-06T12:47:55;16.90;64.70
4615;DHT22;2320;51.362;6.946;2023-04-06T12:50:21;16.90;65.90
4615;DHT22;2320;51.362;6.946;2023-04-06T12:52:47;16.60;66.10
4615;DHT22;2320;51.362;6.946;2023-04-06T12:55:12;16.50;67.20
4615;DHT22;2320;51.362;6.946;2023-04-06T12:57:38;16.60;67.90
4615;DHT22;2320;51.362;6.946;2023-04-06T13:00:04;16.70;67.90
4615;DHT22;2320;51.362;6.946;2023-04-06T13:02:30;16.60;67.40
4615;DHT22;2320;51.362;6.946;2023-04-06T13:04:55;16.80;70.20
4615;DHT22;2320;51.362;6.946;2023-04-06T13:07:21;16.80;70.80
4615;DHT22;2320;51.362;6.946;2023-04-06T13:09:47;16.80;70.70
4615;DHT22;2320;51.362;6.946;2023-04-06T13:12:14;16.70;70.50
4615;DHT22;2320;51.362;6.946;2023-04-06T13:14:40;16.50;70.40
4615;DHT22;2320;51.362;6.946;2023-04-06T13:17:05;16.50;71.70
4615;DHT22;2320;51.362;6.946;2023-04-06T13:19:31;16.30;70.70
4615;DHT22;2320;51.362;6.946;2023-04-06T13:21:57;16.10;72.60
4615;DHT22;2320;51.362;6.946;2023-04-06T13:24:22;16.00;72.40
4615;DHT22;2320;51.362;6.946;2023-04-06T13:26:48;16.10;75.10
4615;DHT22;2320;51.362;6.946;2023-04-06T13:29:14;15.90;73.60
4615;DHT22;2320;51.362;6.946;2023-04-06T13:31:39;16.10;76.80
4615;DHT22;2320;51.362;6.946;2023-04-06T13:34:05;16.30;76.60
4615;DHT22;2320;51.362;6.946;2023-04-06T13:36:30;16.00;74.10
4615;DHT22;2320;51.362;6.946;2023-04-06T13:38:57;16.00;76.40
4615;DHT22;2320;51.362;6.946;2023-04-06T13:41:24;16.10;77.60
4615;DHT22;2320;51.362;6.946;2023-04-06T13:43:50;16.00;78.40
4615;DHT22;2320;51.362;6.946;2023-04-06T13:46:16;16.00;78.10
4615;DHT22;2320;51.362;6.946;2023-04-06T13:48:42;16.00;74.40
4615;DHT22;2320;51.362;6.946;2023-04-06T13:51:11;15.70;76.60
4615;DHT22;2320;51.362;6.946;2023-04-06T13:53:37;15.60;78.70
4615;DHT22;2320;51.362;6.946;2023-04-06T13:56:03;15.60;82.20
4615;DHT22;2320;51.362;6.946;2023-04-06T13:58:28;15.50;81.70
4615;DHT22;2320;51.362;6.946;2023-04-06T14:00:54;15.50;80.60
4615;DHT22;2320;51.362;6.946;2023-04-06T14:03:19;15.00;82.80
4615;DHT22;2320;51.362;6.946;2023-04-06T14:05:45;14.90;86.80
4615;DHT22;2320;51.362;6.946;2023-04-06T14:08:11;14.90;89.90
4615;DHT22;2320;51.362;6.946;2023-04-06T14:10:37;14.90;90.20
4615;DHT22;2320;51.362;6.946;2023-04-06T14:13:02;14.90;91.40
4615;DHT22;2320;51.362;6.946;2023-04-06T14:15:28;14.80;95.20
4615;DHT22;2320;51.362;6.946;2023-04-06T14:17:55;14.70;95.60
4615;DHT22;2320;51.362;6.946;2023-04-06T14:20:21;15.00;97.30
4615;DHT22;2320;51.362;6.946;2023-04-06T14:22:46;15.10;96.40
4615;DHT22;2320;51.362;6.946;2023-04-06T14:25:12;14.80;98.50
4615;DHT22;2320;51.362;6.946;2023-04-06T14:27:38;14.70;99.90
4615;DHT22;2320;51.362;6.946;2023-04-06T14:30:03;14.80;99.90
4615;DHT22;2320;51.362;6.946;2023-04-06T14:32:29;14.70;99.90
4615;DHT22;2320;51.362;6.946;2023-04-06T14:34:54;14.80;99.90
4615;DHT22;2320;51.362;6.946;2023-04-06T14:37:20;14.80;99.90
4615;DHT22;2320;51.362;6.946;2023-04-06T14:39:47;14.60;99.90
4615;DHT22;2320;51.362;6.946;2023-04-06T14:42:12;14.50;99.90
4615;DHT22;2320;51.362;6.946;2023-04-06T14:44:38;14.40;99.90
4615;DHT22;2320;51.362;6.946;2023-04-06T14:47:08;14.30;99.90
4615;DHT22;2320;51.362;6.946;2023-04-06T14:49:34;14.30;99.90
4615;DHT22;2320;51.362;6.946;2023-04-06T14:51:59;14.30;99.90
4615;DHT22;2320;51.362;6.946;2023-04-06T14:54:25;14.30;99.90
4615;DHT22;2320;51.362;6.946;2023-04-06T14:56:50;14.40;99.90
4615;DHT22;2320;51.362;6.946;2023-04-06T14:59:16;14.50;99.90
4615;DHT22;2320;51.362;6.946;2023-04-06T15:01:41;14.60;99.90
4615;DHT22;2320;51.362;6.946;2023-04-06T15:04:07;14.50;99.90
4615;DHT22;2320;51.362;6.946;2023-04-06T15:06:32;14.40;99.90
4615;DHT22;2320;51.362;6.946;2023-04-06T15:08:58;14.60;99.90
4615;DHT22;2320;51.362;6.946;2023-04-06T15:11:23;14.30;99.90
4615;DHT22;2320;51.362;6.946;2023-04-06T15:13:48;14.00;99.90
4615;DHT22;2320;51.362;6.946;2023-04-06T15:16:14;13.70;99.90
4615;DHT22;2320;51.362;6.946;2023-04-06T15:18:39;13.60;99.90
4615;DHT22;2320;51.362;6.946;2023-04-06T15:21:05;13.40;99.90
4615;DHT22;2320;51.362;6.946;2023-04-06T15:23:32;13.20;99.90
4615;DHT22;2320;51.362;6.946;2023-04-06T15:25:59;13.00;99.90
4615;DHT22;2320;51.362;6.946;2023-04-06T15:28:25;12.70;99.90
4615;DHT22;2320;51.362;6.946;2023-04-06T15:30:50;12.60;99.90
4615;DHT22;2320;51.362;6.946;2023-04-06T15:33:16;12.40;99.90
4615;DHT22;2320;51.362;6.946;2023-04-06T15:35:42;12.30;99.90
4615;DHT22;2320;51.362;6.946;2023-04-06T15:38:08;11.90;99.90
4615;DHT22;2320;51.362;6.946;2023-04-06T15:40:34;11.60;99.90
4615;DHT22;2320;51.362;6.946;2023-04-06T15:43:01;11.50;99.90
4615;DHT22;2320;51.362;6.946;2023-04-06T15:45:26;11.30;99.90
4615;DHT22;2320;51.362;6.946;2023-04-06T15:47:52;11.20;99.90
4615;DHT22;2320;51.362;6.946;2023-04-06T15:50:17;11.30;99.90
4615;DHT22;2320;51.362;6.946;2023-04-06T15:52:44;11.30;99.90
4615;DHT22;2320;51.362;6.946;2023-04-06T15:55:09;11.30;99.90
4615;DHT22;2320;51.362;6.946;2023-04-06T15:57:35;11.20;99.90
4615;DHT22;2320;51.362;6.946;2023-04-06T16:00:00;10.80;99.90
4615;DHT22;2320;51.362;6.946;2023-04-06T16:02:26;10.80;99.90
4615;DHT22;2320;51.362;6.946;2023-04-06T16:04:55;10.60;99.90